Time;durP1;ratioP1;P1;durP2;ratioP2;P2;SDS_P1;SDS_P2;PMS_P1;PMS_P2;Temp;Humidity;BMP_temperature;BMP_pressure;BME280_temperature;BME280_humidity;BME280_pressure;Samples;Min_cycle;Max_cycle;Signal;HPM_P1;HPM_P2
2021/11/20 00:01:17;;;;;;;5.45;2.10;;;;;;;;;;6216189;23;20039;-91
2021/11/20 00:03:45;;;;;;;2.85;1.70;;;;;;;;;;6215854;23;20009;-91
2021/11/20 00:06:20;;;;;;;3.00;1.75;;;;;;;;;;6216892;23;20011;-92
2021/11/20 00:08:46;;;;;;;3.30;1.60;;;;;;;;;;6221043;23;20009;-88
2021/11/20 00:11:14;;;;;;;2.70;1.50;;;;;;;;;;6238236;23;20009;-87
2021/11/20 00:13:42;;;;;;;8.07;2.30;;;;;;;;;;6236344;23;20100;-90
2021/11/20 00:16:09;;;;;;;2.30;1.40;;;;;;;;;;6225320;23;20035;-89
2021/11/20 00:18:36;;;;;;;2.30;1.30;;;;;;;;;;6215450;23;20012;-92
2021/11/20 00:21:04;;;;;;;4.63;1.33;;;;;;;;;;6215404;23;20005;-91
2021/11/20 00:23:32;;;;;;;2.58;1.13;;;;;;;;;;6215571;23;20008;-91
2021/11/20 00:26:00;;;;;;;3.63;1.50;;;;;;;;;;6215477;23;20000;-90
2021/11/20 00:28:41;;;;;;;2.42;1.13;;;;;;;;;;6215951;23;20009;-93
2021/11/20 00:31:08;;;;;;;3.03;1.42;;;;;;;;;;6215413;23;20079;-90
2021/11/20 00:33:36;;;;;;;3.05;1.40;;;;;;;;;;6215342;23;20012;-92
2021/11/20 00:36:03;;;;;;;3.13;1.13;;;;;;;;;;6215434;23;20005;-91
2021/11/20 00:38:30;;;;;;;4.93;1.70;;;;;;;;;;6215299;23;20350;-93
2021/11/20 00:41:02;;;;;;;9.80;1.65;;;;;;;;;;6215666;23;20008;-91
2021/11/20 00:43:28;;;;;;;2.70;1.45;;;;;;;;;;6215654;23;20342;-92
2021/11/20 00:45:55;;;;;;;3.50;1.60;;;;;;;;;;6215734;23;20059;-91
2021/11/20 00:48:23;;;;;;;2.47;1.27;;;;;;;;;;6215401;23;20320;-92
2021/11/20 00:50:51;;;;;;;2.45;1.20;;;;;;;;;;6215488;23;20001;-91
2021/11/20 00:53:18;;;;;;;2.97;1.50;;;;;;;;;;6215527;23;20008;-92
2021/11/20 00:55:45;;;;;;;5.00;1.70;;;;;;;;;;6215454;23;20001;-92
2021/11/20 00:58:11;;;;;;;2.00;1.15;;;;;;;;;;6215233;23;20040;-90
2021/11/20 01:00:39;;;;;;;2.30;1.30;;;;;;;;;;6215244;23;20005;-90
2021/11/20 01:03:06;;;;;;;4.05;1.30;;;;;;;;;;6215327;23;20016;-90
2021/11/20 01:05:32;;;;;;;2.15;1.33;;;;;;;;;;6215902;23;20032;-92
2021/11/20 01:07:59;;;;;;;2.30;1.33;;;;;;;;;;6215473;23;20000;-90
2021/11/20 01:10:27;;;;;;;2.92;1.52;;;;;;;;;;6215968;23;20009;-92
2021/11/20 01:12:53;;;;;;;3.40;1.60;;;;;;;;;;6215306;23;20000;-89
2021/11/20 01:15:23;;;;;;;2.65;1.45;;;;;;;;;;6215466;23;20091;-87
2021/11/20 01:17:49;;;;;;;2.15;1.20;;;;;;;;;;6215499;23;20009;-86
2021/11/20 01:20:23;;;;;;;2.40;1.33;;;;;;;;;;6221147;23;20089;-84
2021/11/20 01:22:58;;;;;;;3.20;1.73;;;;;;;;;;6221962;23;20004;-89
2021/11/20 01:25:25;;;;;;;2.85;1.45;;;;;;;;;;6217214;23;20012;-89
2021/11/20 01:27:52;;;;;;;3.20;1.60;;;;;;;;;;6217445;23;20011;-92
2021/11/20 01:30:18;;;;;;;4.00;1.55;;;;;;;;;;6218674;23;20063;-91
2021/11/20 01:32:45;;;;;;;2.78;1.73;;;;;;;;;;6217389;23;20004;-91
2021/11/20 01:35:12;;;;;;;2.53;1.38;;;;;;;;;;6217450;23;20350;-91
2021/11/20 01:37:42;;;;;;;2.45;1.40;;;;;;;;;;6217453;23;20019;-88
2021/11/20 01:40:10;;;;;;;2.67;1.30;;;;;;;;;;6222567;23;20000;-85
2021/11/20 01:42:37;;;;;;;2.42;1.23;;;;;;;;;;6244222;23;20025;-85
2021/11/20 01:45:09;;;;;;;2.90;1.80;;;;;;;;;;6235474;23;20004;-88
2021/11/20 01:47:55;;;;;;;2.83;1.50;;;;;;;;;;6224794;23;20008;-88
2021/11/20 01:50:25;;;;;;;3.63;1.60;;;;;;;;;;6157077;23;20012;-91
2021/11/20 01:53:08;;;;;;;3.17;1.60;;;;;;;;;;6216916;23;20032;-91
2021/11/20 01:55:47;;;;;;;3.13;1.80;;;;;;;;;;6192168;23;20051;-93
2021/11/20 01:58:32;;;;;;;2.17;1.23;;;;;;;;;;6217164;23;20032;-92
2021/11/20 02:01:08;;;;;;;2.55;1.60;;;;;;;;;;6216692;23;20430;-92
2021/11/20 02:03:50;;;;;;;2.67;1.50;;;;;;;;;;6217013;23;20004;-91
2021/11/20 02:06:20;;;;;;;3.00;1.65;;;;;;;;;;6216634;23;20058;-92
2021/11/20 02:09:05;;;;;;;2.85;1.55;;;;;;;;;;6217867;23;20004;-94
2021/11/20 02:11:37;;;;;;;2.58;1.23;;;;;;;;;;6216670;23;20005;-90
2021/11/20 02:14:04;;;;;;;2.90;1.50;;;;;;;;;;6216532;23;20001;-88
2021/11/20 02:16:35;;;;;;;3.67;1.40;;;;;;;;;;6217260;23;20015;-91
2021/11/20 02:19:03;;;;;;;2.97;1.58;;;;;;;;;;6216466;23;20013;-90
2021/11/20 02:21:36;;;;;;;3.28;1.70;;;;;;;;;;6216766;23;20319;-93
2021/11/20 02:24:02;;;;;;;3.35;1.38;;;;;;;;;;6216518;23;20434;-91
2021/11/20 02:26:29;;;;;;;3.15;1.88;;;;;;;;;;6218473;23;20003;-91
2021/11/20 02:28:56;;;;;;;2.78;1.60;;;;;;;;;;6216926;23;20390;-88
2021/11/20 02:31:23;;;;;;;4.38;1.50;;;;;;;;;;6216724;23;20012;-93
2021/11/20 02:33:50;;;;;;;3.03;1.83;;;;;;;;;;6217948;23;20055;-90
2021/11/20 02:36:18;;;;;;;4.50;1.90;;;;;;;;;;6216360;23;20358;-91
2021/11/20 02:38:59;;;;;;;3.40;1.92;;;;;;;;;;6216408;23;20438;-92
2021/11/20 02:41:26;;;;;;;3.22;1.85;;;;;;;;;;6216635;23;20007;-92
2021/11/20 02:43:54;;;;;;;2.58;1.40;;;;;;;;;;6216574;23;20078;-93
2021/11/20 02:46:22;;;;;;;2.70;1.77;;;;;;;;;;6216515;23;20088;-91
2021/11/20 02:48:49;;;;;;;2.83;1.52;;;;;;;;;;6216274;23;20080;-92
2021/11/20 02:51:20;;;;;;;3.15;1.63;;;;;;;;;;6216332;23;20004;-88
2021/11/20 02:53:50;;;;;;;2.80;1.45;;;;;;;;;;6216293;23;20001;-89
2021/11/20 02:56:18;;;;;;;4.15;1.40;;;;;;;;;;6216287;23;20013;-91
2021/11/20 02:58:44;;;;;;;2.95;1.65;;;;;;;;;;6216374;23;20323;-92
2021/11/20 03:01:13;;;;;;;3.13;1.75;;;;;;;;;;6216404;23;20011;-92
2021/11/20 03:03:40;;;;;;;2.90;1.65;;;;;;;;;;6216230;23;20008;-90
2021/11/20 03:06:06;;;;;;;2.47;1.48;;;;;;;;;;6216198;23;20091;-88
2021/11/20 03:08:32;;;;;;;4.53;2.28;;;;;;;;;;6216958;23;20393;-92
2021/11/20 03:10:59;;;;;;;3.67;1.80;;;;;;;;;;6216483;23;20008;-90
2021/11/20 03:13:26;;;;;;;3.80;2.03;;;;;;;;;;6216870;23;20012;-92
2021/11/20 03:15:52;;;;;;;3.25;1.80;;;;;;;;;;6216100;23;20000;-91
2021/11/20 03:18:18;;;;;;;3.83;2.30;;;;;;;;;;6216314;23;20063;-91
2021/11/20 03:20:46;;;;;;;3.35;1.92;;;;;;;;;;6216422;23;20001;-94
2021/11/20 03:23:12;;;;;;;5.55;1.88;;;;;;;;;;6216641;23;20004;-91
2021/11/20 03:25:39;;;;;;;4.55;2.20;;;;;;;;;;6216522;23;20029;-92
2021/11/20 03:28:05;;;;;;;4.82;2.42;;;;;;;;;;6216208;23;20095;-93
2021/11/20 03:30:31;;;;;;;3.50;2.08;;;;;;;;;;6216697;23;20084;-93
2021/11/20 03:32:58;;;;;;;3.22;2.10;;;;;;;;;;6216183;23;20008;-92
2021/11/20 03:35:24;;;;;;;4.20;2.28;;;;;;;;;;6216937;23;20493;-93
2021/11/20 03:37:54;;;;;;;5.28;2.40;;;;;;;;;;6217423;23;20016;-92
2021/11/20 03:40:21;;;;;;;17.92;7.18;;;;;;;;;;6232888;23;20072;-90
2021/11/20 03:42:47;;;;;;;22.10;7.13;;;;;;;;;;6238138;23;20059;-91
2021/11/20 03:45:15;;;;;;;21.05;8.10;;;;;;;;;;6232801;23;20024;-93
2021/11/20 03:47:41;;;;;;;6.55;3.33;;;;;;;;;;6217918;23;20008;-92
2021/11/20 03:50:09;;;;;;;7.15;3.08;;;;;;;;;;6216196;23;20080;-92
2021/11/20 03:52:35;;;;;;;6.63;3.22;;;;;;;;;;6215970;23;20430;-93
2021/11/20 03:55:01;;;;;;;6.22;2.53;;;;;;;;;;6230910;23;20001;-85
2021/11/20 03:57:28;;;;;;;3.47;2.33;;;;;;;;;;6241998;23;19996;-93
2021/11/20 03:59:55;;;;;;;12.15;5.85;;;;;;;;;;6234497;23;20009;-93
2021/11/20 04:02:21;;;;;;;9.52;3.65;;;;;;;;;;6218576;23;20111;-93
2021/11/20 04:04:47;;;;;;;5.47;3.00;;;;;;;;;;6216031;23;20004;-86
2021/11/20 04:07:13;;;;;;;7.53;3.70;;;;;;;;;;6216408;23;20334;-92
2021/11/20 04:09:39;;;;;;;6.93;3.35;;;;;;;;;;6216881;23;20439;-91
2021/11/20 04:12:06;;;;;;;5.22;2.72;;;;;;;;;;6215390;23;20091;-88
2021/11/20 04:14:32;;;;;;;5.78;2.80;;;;;;;;;;6215566;23;20426;-92
2021/11/20 04:16:59;;;;;;;7.13;2.70;;;;;;;;;;6215352;23;20361;-93
2021/11/20 04:19:26;;;;;;;10.25;3.88;;;;;;;;;;6215514;23;20016;-93
2021/11/20 04:21:53;;;;;;;17.67;5.90;;;;;;;;;;6216058;23;20055;-93
2021/11/20 04:24:20;;;;;;;13.48;5.20;;;;;;;;;;6215331;23;20055;-92
2021/11/20 04:26:46;;;;;;;4.53;2.80;;;;;;;;;;6215525;23;20091;-92
2021/11/20 04:29:12;;;;;;;6.00;3.05;;;;;;;;;;6215437;23;20015;-89
2021/11/20 04:31:39;;;;;;;12.75;4.28;;;;;;;;;;6215390;23;20342;-92
2021/11/20 04:34:06;;;;;;;5.50;2.50;;;;;;;;;;6215427;23;20012;-91
2021/11/20 04:36:33;;;;;;;5.30;2.80;;;;;;;;;;6215448;23;20055;-93
2021/11/20 04:39:00;;;;;;;5.85;2.80;;;;;;;;;;6215276;23;20108;-93
2021/11/20 04:41:26;;;;;;;5.75;2.90;;;;;;;;;;6215334;23;20039;-93
2021/11/20 04:43:53;;;;;;;4.57;2.45;;;;;;;;;;6215512;23;20449;-92
2021/11/20 04:46:21;;;;;;;6.60;3.10;;;;;;;;;;6215536;23;20023;-92
2021/11/20 04:48:47;;;;;;;5.00;2.63;;;;;;;;;;6215706;23;20135;-93
2021/11/20 04:51:14;;;;;;;4.82;2.85;;;;;;;;;;6215333;23;20493;-92
2021/11/20 04:53:42;;;;;;;6.18;2.85;;;;;;;;;;6217437;23;20001;-93
2021/11/20 04:56:09;;;;;;;7.13;3.00;;;;;;;;;;6215322;23;20001;-94
2021/11/20 04:58:35;;;;;;;5.60;2.90;;;;;;;;;;6215637;23;20020;-92
2021/11/20 05:01:02;;;;;;;4.55;2.70;;;;;;;;;;6217340;23;20059;-91
2021/11/20 05:03:29;;;;;;;5.20;2.67;;;;;;;;;;6217331;23;20005;-92
2021/11/20 05:05:56;;;;;;;5.38;2.70;;;;;;;;;;6217406;23;20093;-87
2021/11/20 05:08:23;;;;;;;4.88;2.50;;;;;;;;;;6217200;23;20047;-92
2021/11/20 05:10:50;;;;;;;5.47;3.03;;;;;;;;;;6217286;23;20005;-92
2021/11/20 05:13:17;;;;;;;5.63;2.83;;;;;;;;;;6217225;23;20019;-91
2021/11/20 05:15:44;;;;;;;5.90;2.83;;;;;;;;;;6217220;23;20000;-90
2021/11/20 05:18:11;;;;;;;5.72;3.03;;;;;;;;;;6217388;23;20020;-93
2021/11/20 05:20:37;;;;;;;5.95;2.97;;;;;;;;;;6217218;23;20025;-93
2021/11/20 05:23:04;;;;;;;6.82;2.80;;;;;;;;;;6217080;23;20016;-93
2021/11/20 05:25:31;;;;;;;5.85;2.70;;;;;;;;;;6217143;23;20000;-93
2021/11/20 05:27:57;;;;;;;6.35;2.78;;;;;;;;;;6218453;23;20103;-87
2021/11/20 05:30:30;;;;;;;4.55;2.60;;;;;;;;;;6218817;23;20072;-96
2021/11/20 05:32:56;;;;;;;7.57;3.00;;;;;;;;;;6220627;23;20008;-91
2021/11/20 05:35:23;;;;;;;5.07;2.95;;;;;;;;;;6217410;23;20011;-95
2021/11/20 05:37:49;;;;;;;5.40;2.88;;;;;;;;;;6217338;23;20012;-95
2021/11/20 05:40:16;;;;;;;5.50;2.63;;;;;;;;;;6217270;23;20435;-95
2021/11/20 05:42:44;;;;;;;5.35;2.53;;;;;;;;;;6218524;23;20070;-94
2021/11/20 05:45:10;;;;;;;5.55;2.80;;;;;;;;;;6218370;23;20002;-94
2021/11/20 05:47:37;;;;;;;6.07;2.97;;;;;;;;;;6217451;23;20009;-92
2021/11/20 05:50:04;;;;;;;8.82;3.22;;;;;;;;;;6217670;23;20000;-93
2021/11/20 05:52:30;;;;;;;6.13;2.85;;;;;;;;;;6218711;23;20037;-94
2021/11/20 05:54:57;;;;;;;5.82;3.05;;;;;;;;;;6217243;23;20036;-94
2021/11/20 05:57:23;;;;;;;7.13;3.00;;;;;;;;;;6217275;23;20040;-94
2021/11/20 05:59:49;;;;;;;5.80;2.92;;;;;;;;;;6218290;23;20069;-94
2021/11/20 06:02:16;;;;;;;5.57;3.03;;;;;;;;;;6225183;23;20036;-92
2021/11/20 06:04:42;;;;;;;7.25;3.30;;;;;;;;;;6217461;23;20068;-91
2021/11/20 06:07:11;;;;;;;5.70;2.80;;;;;;;;;;6217542;23;20009;-90
2021/11/20 06:09:38;;;;;;;6.28;3.20;;;;;;;;;;6240015;23;20012;-90
2021/11/20 06:12:04;;;;;;;9.07;3.35;;;;;;;;;;6243373;23;20083;-89
2021/11/20 06:14:30;;;;;;;5.68;3.13;;;;;;;;;;6243846;23;20016;-91
2021/11/20 06:16:57;;;;;;;6.50;3.30;;;;;;;;;;6217396;23;20058;-93
2021/11/20 06:19:23;;;;;;;4.97;2.90;;;;;;;;;;6217230;23;20004;-95
2021/11/20 06:21:49;;;;;;;6.97;3.00;;;;;;;;;;6216689;23;20450;-92
2021/11/20 06:24:16;;;;;;;6.30;2.88;;;;;;;;;;6217229;23;20012;-93
2021/11/20 06:26:42;;;;;;;5.05;2.85;;;;;;;;;;6216735;23;20055;-92
2021/11/20 06:29:08;;;;;;;6.53;3.00;;;;;;;;;;6216634;23;20084;-93
2021/11/20 06:31:35;;;;;;;6.80;3.17;;;;;;;;;;6217483;23;20082;-91
2021/11/20 06:34:02;;;;;;;6.13;3.08;;;;;;;;;;6216449;23;20028;-94
2021/11/20 06:36:29;;;;;;;5.03;2.85;;;;;;;;;;6216611;23;20028;-90
2021/11/20 06:38:56;;;;;;;7.38;3.28;;;;;;;;;;6216394;23;20020;-94
2021/11/20 06:41:23;;;;;;;5.70;3.00;;;;;;;;;;6216447;23;20000;-95
2021/11/20 06:43:49;;;;;;;4.05;2.50;;;;;;;;;;6192230;23;20029;-95
2021/11/20 06:46:16;;;;;;;6.20;2.50;;;;;;;;;;6218354;23;20012;-96
2021/11/20 06:48:43;;;;;;;6.30;2.70;;;;;;;;;;6218240;23;20008;-95
2021/11/20 06:51:10;;;;;;;6.65;3.38;;;;;;;;;;6218614;23;20004;-95
2021/11/20 06:53:36;;;;;;;4.43;2.28;;;;;;;;;;6218711;23;20016;-91
2021/11/20 06:56:04;;;;;;;5.65;2.42;;;;;;;;;;6220487;23;20007;-89
2021/11/20 07:01:11;;;;;;;6.28;2.10;;;;;;;;;;6229291;23;20023;-93
2021/11/20 07:03:45;;;;;;;4.68;2.08;;;;;;;;;;6216956;23;20009;-94
2021/11/20 07:06:13;;;;;;;4.22;2.65;;;;;;;;;;6218209;23;20005;-89
2021/11/20 07:08:40;;;;;;;3.97;2.03;;;;;;;;;;6220848;23;20320;-96
2021/11/20 07:11:06;;;;;;;3.55;2.10;;;;;;;;;;6218374;23;20008;-92
2021/11/20 07:13:33;;;;;;;3.80;1.95;;;;;;;;;;6219952;23;20011;-89
2021/11/20 07:16:00;;;;;;;5.45;2.42;;;;;;;;;;6217474;23;20009;-95
2021/11/20 07:18:26;;;;;;;3.17;1.98;;;;;;;;;;6192077;23;20028;-92
2021/11/20 07:20:52;;;;;;;4.68;2.10;;;;;;;;;;6218162;23;20004;-92
2021/11/20 07:23:20;;;;;;;6.95;2.35;;;;;;;;;;6218481;23;20083;-94
2021/11/20 07:25:52;;;;;;;6.40;2.58;;;;;;;;;;6218585;22;20016;-95
2021/11/20 07:28:19;;;;;;;6.60;2.50;;;;;;;;;;6216426;23;20086;-96
2021/11/20 07:30:45;;;;;;;4.18;2.17;;;;;;;;;;6216546;23;20000;-90
2021/11/20 07:33:12;;;;;;;4.82;2.25;;;;;;;;;;6218582;23;20008;-96
2021/11/20 07:35:41;;;;;;;3.78;2.17;;;;;;;;;;6217421;23;20000;-90
2021/11/20 07:38:08;;;;;;;5.55;2.42;;;;;;;;;;6218607;23;20009;-95
2021/11/20 07:40:36;;;;;;;3.53;1.92;;;;;;;;;;6216359;23;20001;-94
2021/11/20 07:43:02;;;;;;;4.78;2.08;;;;;;;;;;6216409;23;20017;-94
2021/11/20 07:45:28;;;;;;;4.22;2.00;;;;;;;;;;6216529;23;20001;-89
2021/11/20 07:47:55;;;;;;;4.65;2.30;;;;;;;;;;6216052;23;20004;-94
2021/11/20 07:50:21;;;;;;;4.13;2.13;;;;;;;;;;6216043;23;20001;-94
2021/11/20 07:52:48;;;;;;;4.25;1.60;;;;;;;;;;6216599;23;20009;-89
2021/11/20 07:55:15;;;;;;;3.80;1.90;;;;;;;;;;6216398;23;20000;-89
2021/11/20 07:57:41;;;;;;;3.60;1.88;;;;;;;;;;6215665;23;20012;-92
2021/11/20 08:00:10;;;;;;;3.03;1.35;;;;;;;;;;6216260;23;20009;-93
2021/11/20 08:02:37;;;;;;;3.95;1.77;;;;;;;;;;6220191;23;20005;-92
2021/11/20 08:05:03;;;;;;;3.10;1.60;;;;;;;;;;6216125;23;20009;-95
2021/11/20 08:07:30;;;;;;;2.75;1.20;;;;;;;;;;6217220;23;20490;-94
2021/11/20 08:09:57;;;;;;;3.80;1.73;;;;;;;;;;6223984;23;20009;-94
2021/11/20 08:12:23;;;;;;;2.40;1.40;;;;;;;;;;6217310;23;20439;-91
2021/11/20 08:14:49;;;;;;;4.22;1.83;;;;;;;;;;6217482;23;20004;-89
2021/11/20 08:17:23;;;;;;;2.42;1.25;;;;;;;;;;6223237;23;20016;-94
2021/11/20 08:19:55;;;;;;;3.25;1.55;;;;;;;;;;6224137;23;20000;-95
2021/11/20 08:22:21;;;;;;;3.33;1.60;;;;;;;;;;6229904;23;20027;-91
2021/11/20 08:24:50;;;;;;;3.85;1.92;;;;;;;;;;6237135;23;19993;-93
2021/11/20 08:27:17;;;;;;;3.53;2.05;;;;;;;;;;6243829;23;20009;-93
2021/11/20 08:30:01;;;;;;;4.13;1.83;;;;;;;;;;6244042;23;19996;-92
2021/11/20 08:32:50;;;;;;;3.28;1.60;;;;;;;;;;6237430;23;20013;-95
2021/11/20 08:35:25;;;;;;;2.80;1.63;;;;;;;;;;6228838;23;20005;-94
2021/11/20 08:37:54;;;;;;;3.10;1.85;;;;;;;;;;6235157;23;20016;-94
2021/11/20 08:40:28;;;;;;;3.50;1.95;;;;;;;;;;6230127;23;20016;-94
2021/11/20 08:42:57;;;;;;;3.85;1.83;;;;;;;;;;6234221;23;20024;-96
2021/11/20 08:45:24;;;;;;;3.95;2.05;;;;;;;;;;6208180;23;20036;-96
2021/11/20 08:47:53;;;;;;;4.30;2.03;;;;;;;;;;6226745;23;20035;-92
2021/11/20 08:50:40;;;;;;;3.85;2.22;;;;;;;;;;6234374;23;20004;-96
2021/11/20 08:53:11;;;;;;;4.72;2.30;;;;;;;;;;6239144;23;20004;-94
2021/11/20 08:55:39;;;;;;;4.65;2.13;;;;;;;;;;6232319;23;20059;-93
2021/11/20 08:58:06;;;;;;;4.78;2.25;;;;;;;;;;6204018;23;20021;-96
2021/11/20 09:00:40;;;;;;;5.82;2.90;;;;;;;;;;6203257;23;20012;-95
2021/11/20 09:03:32;;;;;;;5.45;2.60;;;;;;;;;;6230471;23;20015;-96
2021/11/20 09:12:53;;;;;;;4.88;2.38;;;;;;;;;;6182233;23;20008;-96
2021/11/20 09:19:07;;;;;;;6.45;2.30;;;;;;;;;;6152639;23;20077;-96
2021/11/20 09:22:13;;;;;;;5.50;2.05;;;;;;;;;;5981185;23;20068;-94
2021/11/20 09:25:30;;;;;;;5.38;2.38;;;;;;;;;;6062469;23;20015;-95
2021/11/20 09:32:16;;;;;;;3.55;2.05;;;;;;;;;;5953057;24;20078;-96
2021/11/20 09:35:30;;;;;;;3.60;2.17;;;;;;;;;;5859036;24;20025;-96
2021/11/20 09:38:26;;;;;;;3.83;1.83;;;;;;;;;;5866734;24;20031;-89
2021/11/20 09:54:42;;;;;;;6.05;2.92;;;;;;;;;;5867717;24;20025;-90
2021/11/20 09:57:56;;;;;;;7.35;3.75;;;;;;;;;;5825789;24;20045;-91
2021/11/20 10:00:45;;;;;;;6.55;3.15;;;;;;;;;;5821379;24;20015;-90
2021/11/20 10:03:37;;;;;;;6.07;3.40;;;;;;;;;;5839450;24;20029;-91
2021/11/20 10:06:37;;;;;;;5.47;3.00;;;;;;;;;;5797769;24;20011;-95
2021/11/20 10:23:57;;;;;;;;;;;;;;;;;;6271705;23;20412;-96
2021/11/20 10:27:02;;;;;;;3.30;1.83;;;;;;;;;;6245781;23;19947;-96
2021/11/20 10:30:13;;;;;;;3.70;2.17;;;;;;;;;;6272657;23;20010;-93
2021/11/20 10:33:48;;;;;;;3.28;2.03;;;;;;;;;;6151560;23;20085;-96
2021/11/20 10:37:00;;;;;;;5.22;1.83;;;;;;;;;;6179782;23;19998;-96
2021/11/20 10:39:42;;;;;;;6.35;1.70;;;;;;;;;;6093295;23;19999;-96
2021/11/20 10:45:58;;;;;;;3.28;1.67;;;;;;;;;;6242436;22;20053;-96
2021/11/20 12:26:47;;;;;;;4.93;2.55;;;;;;;;;;6220515;22;20025;-87
2021/11/20 12:29:16;;;;;;;5.70;2.45;;;;;;;;;;6215842;23;20032;-91
2021/11/20 12:32:01;;;;;;;4.38;2.20;;;;;;;;;;6213610;23;20422;-90
2021/11/20 12:34:46;;;;;;;5.97;2.20;;;;;;;;;;6214566;23;20075;-89
2021/11/20 12:37:24;;;;;;;6.88;3.47;;;;;;;;;;6214801;23;20008;-89
2021/11/20 12:40:09;;;;;;;9.20;3.30;;;;;;;;;;6215165;23;20087;-89
2021/11/20 12:42:54;;;;;;;6.80;3.30;;;;;;;;;;6215679;23;20055;-90
2021/11/20 12:45:29;;;;;;;6.40;2.80;;;;;;;;;;6214146;23;20011;-86
2021/11/20 12:48:06;;;;;;;10.90;3.83;;;;;;;;;;6215643;23;20035;-87
2021/11/20 12:50:48;;;;;;;6.63;3.10;;;;;;;;;;6214642;23;20023;-82
2021/11/20 12:53:21;;;;;;;5.32;2.70;;;;;;;;;;6216060;23;20365;-84
2021/11/20 12:56:05;;;;;;;7.35;2.90;;;;;;;;;;6215746;23;20001;-84
2021/11/20 12:58:35;;;;;;;4.28;2.58;;;;;;;;;;6214419;23;20067;-88
2021/11/20 13:01:05;;;;;;;6.22;2.75;;;;;;;;;;6214586;23;20051;-81
2021/11/20 13:03:46;;;;;;;5.68;2.90;;;;;;;;;;6214300;23;20001;-80
2021/11/20 13:06:18;;;;;;;11.57;6.05;;;;;;;;;;6214211;23;20334;-80
2021/11/20 13:09:11;;;;;;;8.88;4.70;;;;;;;;;;6214252;23;20446;-86
2021/11/20 13:11:46;;;;;;;7.65;3.13;;;;;;;;;;6192292;23;20005;-80
2021/11/20 13:14:31;;;;;;;10.40;3.88;;;;;;;;;;6214168;23;20039;-79
2021/11/20 13:17:27;;;;;;;28.05;10.60;;;;;;;;;;6214158;23;20012;-81
2021/11/20 13:20:11;;;;;;;7.07;3.70;;;;;;;;;;6196282;23;20044;-80
2021/11/20 13:22:39;;;;;;;9.07;4.82;;;;;;;;;;6215447;23;20001;-80
2021/11/20 13:25:16;;;;;;;13.90;5.55;;;;;;;;;;6215878;23;20337;-80
2021/11/20 13:27:42;;;;;;;18.30;7.93;;;;;;;;;;6216936;23;20027;-80
2021/11/20 13:30:10;;;;;;;37.63;16.25;;;;;;;;;;6217454;23;20001;-80
2021/11/20 13:32:37;;;;;;;23.35;10.30;;;;;;;;;;6190770;23;20326;-80
2021/11/20 13:35:04;;;;;;;19.77;8.88;;;;;;;;;;6190745;23;20413;-80
2021/11/20 13:37:30;;;;;;;7.60;3.72;;;;;;;;;;6190653;23;20036;-78
2021/11/20 13:39:56;;;;;;;9.02;4.50;;;;;;;;;;6218011;23;20059;-78
2021/11/20 13:42:23;;;;;;;9.43;4.65;;;;;;;;;;6190714;23;20326;-79
2021/11/20 13:44:50;;;;;;;8.70;4.10;;;;;;;;;;6217273;23;20053;-79
2021/11/20 13:47:16;;;;;;;9.35;4.47;;;;;;;;;;6217911;23;20050;-79
2021/11/20 13:49:55;;;;;;;7.18;3.42;;;;;;;;;;6190648;23;20028;-80
2021/11/20 13:52:21;;;;;;;7.50;4.32;;;;;;;;;;6190623;23;20070;-80
2021/11/20 13:54:57;;;;;;;9.35;4.25;;;;;;;;;;6218175;23;20051;-80
2021/11/20 13:57:23;;;;;;;15.75;6.72;;;;;;;;;;6190556;23;20019;-80
2021/11/20 13:59:50;;;;;;;30.75;9.15;;;;;;;;;;6190523;23;20091;-78
2021/11/20 14:02:20;;;;;;;18.33;6.65;;;;;;;;;;6217160;23;20028;-80
2021/11/20 14:04:46;;;;;;;22.13;7.03;;;;;;;;;;6217793;23;20006;-78
2021/11/20 14:07:14;;;;;;;12.43;4.75;;;;;;;;;;6190402;23;20484;-80
2021/11/20 14:09:49;;;;;;;15.60;5.50;;;;;;;;;;6190590;23;20032;-80
2021/11/20 14:12:17;;;;;;;14.77;5.47;;;;;;;;;;6190355;23;20009;-79
2021/11/20 14:14:43;;;;;;;9.45;3.95;;;;;;;;;;6190486;23;20005;-80
2021/11/20 14:17:10;;;;;;;5.63;2.97;;;;;;;;;;6190342;23;20005;-78
2021/11/20 14:19:37;;;;;;;5.70;2.90;;;;;;;;;;6190474;23;20437;-80
2021/11/20 14:22:07;;;;;;;21.75;7.25;;;;;;;;;;6190370;23;20000;-79
2021/11/20 14:24:35;;;;;;;27.08;10.55;;;;;;;;;;6190422;23;20004;-79
2021/11/20 14:27:01;;;;;;;36.50;12.38;;;;;;;;;;6216689;23;20084;-78
2021/11/20 14:29:28;;;;;;;41.72;15.50;;;;;;;;;;6190355;23;20011;-78
2021/11/20 14:31:54;;;;;;;27.65;9.40;;;;;;;;;;6189943;23;20299;-80
2021/11/20 14:34:29;;;;;;;8.38;4.15;;;;;;;;;;6190268;23;20004;-79
2021/11/20 14:36:56;;;;;;;8.68;3.33;;;;;;;;;;6190248;23;20008;-80
2021/11/20 14:39:29;;;;;;;4.25;2.95;;;;;;;;;;6217407;23;20013;-80
2021/11/20 14:41:59;;;;;;;6.72;3.60;;;;;;;;;;6190202;23;20024;-80
2021/11/20 14:44:26;;;;;;;8.38;3.92;;;;;;;;;;6190140;23;20062;-80
2021/11/20 14:47:02;;;;;;;11.65;6.38;;;;;;;;;;6216728;23;20059;-80
2021/11/20 14:49:29;;;;;;;20.95;8.85;;;;;;;;;;6190269;23;20024;-78
2021/11/20 14:51:55;;;;;;;26.70;9.75;;;;;;;;;;6190385;23;20350;-78
2021/11/20 14:54:24;;;;;;;27.60;10.95;;;;;;;;;;6216845;23;20068;-81
2021/11/20 14:56:52;;;;;;;35.80;13.32;;;;;;;;;;6190342;23;20083;-78
2021/11/20 14:59:18;;;;;;;30.15;13.70;;;;;;;;;;6217029;23;20015;-79
2021/11/20 15:01:44;;;;;;;21.55;9.25;;;;;;;;;;6190593;23;20000;-78
2021/11/20 15:04:10;;;;;;;24.13;10.75;;;;;;;;;;6217045;23;20005;-79
2021/11/20 15:06:39;;;;;;;18.73;7.95;;;;;;;;;;6216979;23;20000;-79
2021/11/20 15:09:05;;;;;;;14.90;5.40;;;;;;;;;;6216907;23;20417;-79
2021/11/20 15:11:32;;;;;;;8.60;4.47;;;;;;;;;;6217311;23;20000;-82
2021/11/20 15:14:00;;;;;;;16.67;7.63;;;;;;;;;;6217496;23;20001;-79
2021/11/20 15:16:26;;;;;;;22.88;7.13;;;;;;;;;;6217440;23;20011;-79
2021/11/20 15:18:55;;;;;;;10.15;5.20;;;;;;;;;;6189874;23;20017;-79
2021/11/20 15:21:22;;;;;;;7.20;4.05;;;;;;;;;;6189871;23;20016;-80
2021/11/20 15:23:49;;;;;;;11.15;5.60;;;;;;;;;;6189879;23;20004;-81
2021/11/20 15:26:16;;;;;;;12.40;4.63;;;;;;;;;;6216381;23;20044;-80
2021/11/20 15:28:42;;;;;;;9.07;3.85;;;;;;;;;;6189707;23;20088;-80
2021/11/20 15:31:08;;;;;;;6.97;3.45;;;;;;;;;;6216343;23;20004;-80
2021/11/20 15:33:34;;;;;;;13.65;5.43;;;;;;;;;;6216289;23;20024;-78
2021/11/20 15:36:01;;;;;;;9.48;5.05;;;;;;;;;;6216217;23;19997;-79
2021/11/20 15:38:28;;;;;;;10.23;5.05;;;;;;;;;;6189512;23;20088;-80
2021/11/20 15:40:55;;;;;;;9.23;4.93;;;;;;;;;;6216159;23;20001;-80
2021/11/20 15:43:21;;;;;;;10.02;4.68;;;;;;;;;;6215690;23;20001;-80
2021/11/20 15:45:47;;;;;;;11.40;4.28;;;;;;;;;;6189524;23;20027;-81
2021/11/20 15:48:13;;;;;;;11.32;4.95;;;;;;;;;;6216829;23;20503;-80
2021/11/20 15:50:39;;;;;;;16.00;5.47;;;;;;;;;;6189654;23;20080;-80
2021/11/20 15:53:06;;;;;;;12.23;5.30;;;;;;;;;;6189453;23;20008;-81
2021/11/20 15:55:32;;;;;;;13.93;5.35;;;;;;;;;;6189552;23;20007;-80
2021/11/20 15:57:58;;;;;;;15.75;5.25;;;;;;;;;;6189312;23;20016;-80
2021/11/20 16:00:27;;;;;;;15.93;6.13;;;;;;;;;;6189950;23;20020;-81
2021/11/20 16:02:56;;;;;;;15.85;5.72;;;;;;;;;;6189569;23;20005;-81
2021/11/20 16:05:22;;;;;;;16.83;6.32;;;;;;;;;;6188982;23;20012;-82
2021/11/20 16:07:48;;;;;;;12.07;5.82;;;;;;;;;;6189885;23;20008;-85
2021/11/20 16:10:19;;;;;;;8.43;4.07;;;;;;;;;;6189358;23;20012;-83
2021/11/20 16:12:46;;;;;;;19.15;7.15;;;;;;;;;;6189347;23;20012;-82
2021/11/20 16:15:12;;;;;;;19.00;8.35;;;;;;;;;;6215066;23;20001;-82
2021/11/20 16:17:39;;;;;;;25.10;10.60;;;;;;;;;;6189089;23;20386;-82
2021/11/20 16:20:07;;;;;;;38.70;12.90;;;;;;;;;;6216686;23;20417;-80
2021/11/20 16:22:33;;;;;;;29.75;9.93;;;;;;;;;;6189260;23;20004;-81
2021/11/20 16:24:59;;;;;;;37.47;13.20;;;;;;;;;;6215844;23;19997;-81
2021/11/20 16:27:28;;;;;;;39.50;12.05;;;;;;;;;;6207337;23;20062;-82
2021/11/20 16:29:54;;;;;;;38.70;13.25;;;;;;;;;;6214341;23;20043;-81
2021/11/20 16:32:23;;;;;;;16.73;5.75;;;;;;;;;;6216411;23;20008;-89
2021/11/20 16:34:50;;;;;;;22.02;8.18;;;;;;;;;;6218974;23;20059;-89
2021/11/20 16:37:16;;;;;;;20.85;7.30;;;;;;;;;;6215118;23;20330;-91
2021/11/20 16:39:43;;;;;;;10.85;5.03;;;;;;;;;;6215630;23;20020;-92
2021/11/20 16:42:09;;;;;;;11.32;3.90;;;;;;;;;;6215339;23;20083;-91
2021/11/20 16:44:36;;;;;;;6.85;3.75;;;;;;;;;;6215429;23;20033;-93
2021/11/20 16:47:02;;;;;;;18.02;7.88;;;;;;;;;;6215212;23;20044;-90
2021/11/20 16:49:28;;;;;;;15.05;7.32;;;;;;;;;;6215113;23;20083;-89
2021/11/20 16:54:26;;;;;;;12.32;6.00;;;;;;;;;;6217014;23;20426;-88
2021/11/20 16:56:53;;;;;;;13.93;6.60;;;;;;;;;;6216763;23;20008;-87
2021/11/20 16:59:20;;;;;;;15.00;6.65;;;;;;;;;;6216471;23;20012;-89
2021/11/20 17:01:46;;;;;;;15.68;6.32;;;;;;;;;;6216741;23;20011;-90
2021/11/20 17:04:13;;;;;;;14.07;6.20;;;;;;;;;;6216650;23;20008;-89
2021/11/20 17:06:39;;;;;;;12.38;5.75;;;;;;;;;;6216849;23;20425;-89
2021/11/20 17:09:05;;;;;;;11.13;6.22;;;;;;;;;;6216891;23;20074;-89
2021/11/20 17:11:32;;;;;;;14.15;6.05;;;;;;;;;;6216716;23;20031;-88
2021/11/20 17:13:58;;;;;;;10.23;6.45;;;;;;;;;;6216795;23;20016;-89
2021/11/20 17:16:24;;;;;;;10.40;5.38;;;;;;;;;;6216877;23;20004;-94
2021/11/20 17:18:51;;;;;;;11.15;5.43;;;;;;;;;;6216834;23;20373;-89
2021/11/20 17:21:18;;;;;;;12.50;6.13;;;;;;;;;;6216916;23;20005;-92
2021/11/20 17:23:44;;;;;;;11.52;6.05;;;;;;;;;;6216769;23;20008;-90
2021/11/20 17:26:11;;;;;;;12.43;5.78;;;;;;;;;;6216557;23;20391;-89
2021/11/20 17:28:38;;;;;;;12.07;5.72;;;;;;;;;;6217041;23;20013;-90